首页
METAR-TAF:

METAR-TAF

机场 :

Challis Airport

Challis, 爱达荷州, 美国

纬度: 44-31-22N, 经度: 114-12-54W, 海拔: 1546米

当前天气观测

该预报发布于32分钟前的21:18 UTC
风速17节,风向西转西北,有时为27节阵风
温度 5°C
湿度 35%
气压 1021 hPa
能見度: 16.1公里
少量云层高于7000英尺

METAR: KLLJ 172118Z AUTO 29017G27KT 10SM FEW070 05/M09 A3015 RMK AO2 PK WND 30027/2114 WSHFT 2058 T00501094

时间: 15:50 (21:50 UTC)


TAF: 丢失

超过4000个机场的气象观测和天气预报(METAR&TAF报告)。

可查询的气象台以黄色和红色小点在地图上表示。

将鼠标移到小点上方,可查看气象台名称。

然后点击查看天气观测和预报。

如需切换地图:点击带黑十字的绿色按钮放大地图;点击带横线的绿色按钮缩小地图;或者点击绿色箭头查看邻近地区的地图。


METAR-TAF: